Bourbonnais, IL (60914)

02:09 PM CST am 28. Januar 2015 (GMT -0600)
Meadowbrook | Change Station
CLOSE
Current Station
Persönliche Wetterstationen
Location: Bourbonnais, IL
Höhe: 686 ft
Wetterstationen in der Umgebung

Höhe 686 ft 41.19 °N, 87.89 °W | Updated 4 minutes ago

Heiter
Heiter
36.0 °F
gefühlte 29 °F
N
9.8
Wind Wechselnd Wind aus Ost

Heute
Max. -- | schwach -- °F
--% Regenrisiko
Gestern
Max. -- | schwach -- °F
Precip. -- inch
7:06 AM 5:03 PM
Zweites Viertel, 67% visible
Druck 30.15 inch
Sichtweite 10.0 Meilen
Wolken Heiter
Windchill 29 °F
Taupunkt 24 °F
Feuchtigkeit 62%
Regen 0.02 inch
Schneehöhe Nicht verfügbar..
UV 2 von 12
Pollen .10 von 12
Luftqualität Nicht verfügbar..
Flu Activity Nicht verfügbar..
METAR KIKK 281955Z AUTO 14010KT 10SM CLR 01/M04 A3015 RMK AO2 T00101044

More Conditions Fewer Conditions

Druck 30.15 inch
Sichtweite 10.0 Meilen
Wolken Heiter
Windchill 29 °F
Taupunkt 24 °F
Feuchtigkeit 62%
Regen 0.02 inch
Schneehöhe Nicht verfügbar..
UV 2 von 12
Pollen .10 von 12
Luftqualität Nicht verfügbar..
Flu Activity Nicht verfügbar..
METAR KIKK 281955Z AUTO 14010KT 10SM CLR 01/M04 A3015 RMK AO2 T00101044

More Conditions Fewer Conditions

10-Day Weather Forecast

Almanac

Astronomie

Jan. 28, 2015 Aufgang Untergang
Genaue Zeit
Bürgerliche Dämmerung
Nautische Dämmerung
Astronomische Dämmerung
Mond
Länge des sichtbaren Lichts
Tageslänge
Tomorrow will be .
, % of the Moon is Illuminated

Heutige Rekorde

State Highs State Lows

Community

WunderPhotos

Upload Photos

1,791,251 Fotos hochgeladen!

WunderBlogs® & News

Nearby

Luftqualität

  Luftqualität LQ Index Schadstoff
Not available.

Schneehöhe

Station Depth Höhe

Erdbebenaktivität

Stadt Distance Mag. Time & Date
Minimum magnitude displayed is 2.5.

küstennahe Wassertemperaturen

Ort Temperatur

Wetterstationen in der Umgebung